createdAt,value
2023-04-22T00:01:38.396Z,40.95
2023-04-22T00:04:06.215Z,43.20
2023-04-22T00:06:33.791Z,43.15
2023-04-22T00:09:01.046Z,44.53
2023-04-22T00:11:29.518Z,43.35
2023-04-22T00:13:56.799Z,47.90
2023-04-22T00:16:26.249Z,46.78
2023-04-22T00:18:54.925Z,46.80
2023-04-22T00:21:22.251Z,48.35
2023-04-22T00:23:49.547Z,45.85
2023-04-22T00:26:16.857Z,44.35
2023-04-22T00:28:44.205Z,48.78
2023-04-22T00:31:11.515Z,48.10
2023-04-22T00:33:38.946Z,45.78
2023-04-22T00:36:06.706Z,45.25
2023-04-22T00:38:34.163Z,45.88
2023-04-22T00:41:02.511Z,45.30
2023-04-22T00:43:29.959Z,43.85
2023-04-22T00:45:58.126Z,44.70
2023-04-22T00:48:28.266Z,44.65
2023-04-22T00:50:56.217Z,45.35
2023-04-22T00:53:23.552Z,42.78
2023-04-22T00:55:51.040Z,45.15
2023-04-22T00:58:21.188Z,45.78
2023-04-22T01:00:48.585Z,43.38
2023-04-22T01:03:16.204Z,45.67
2023-04-22T01:05:44.191Z,45.00
2023-04-22T01:08:12.981Z,46.40
2023-04-22T01:10:42.161Z,47.17
2023-04-22T01:13:09.956Z,45.83
2023-04-22T01:15:37.927Z,49.25
2023-04-22T01:18:05.651Z,48.00
2023-04-22T01:20:33.084Z,46.47
2023-04-22T01:23:04.276Z,47.35
2023-04-22T01:25:31.732Z,52.10
2023-04-22T01:27:59.339Z,47.58
2023-04-22T01:30:26.993Z,45.85
2023-04-22T01:32:54.820Z,48.85
2023-04-22T01:35:22.251Z,50.33
2023-04-22T01:37:49.604Z,48.05
2023-04-22T01:40:19.882Z,49.30
2023-04-22T01:42:47.941Z,48.38
2023-04-22T01:45:17.585Z,51.97
2023-04-22T01:47:45.061Z,50.05
2023-04-22T01:50:12.386Z,47.95
2023-04-22T01:52:39.811Z,46.83
2023-04-22T01:55:08.428Z,45.92
2023-04-22T01:57:36.108Z,45.70
2023-04-22T02:00:05.686Z,45.13
2023-04-22T02:02:33.040Z,47.03
2023-04-22T02:05:00.568Z,45.28
2023-04-22T02:07:27.968Z,46.78
2023-04-22T02:09:55.347Z,45.63
2023-04-22T02:12:22.665Z,47.90
2023-04-22T02:14:49.943Z,48.03
2023-04-22T02:17:18.066Z,48.35
2023-04-22T02:19:45.445Z,45.25
2023-04-22T02:22:12.805Z,46.30
2023-04-22T02:24:40.176Z,43.20
2023-04-22T02:27:08.860Z,42.33
2023-04-22T02:29:36.233Z,45.53
2023-04-22T02:32:03.571Z,45.50
2023-04-22T02:34:30.977Z,45.28
2023-04-22T02:36:58.311Z,45.97
2023-04-22T02:39:26.058Z,45.28
2023-04-22T02:41:53.451Z,48.08
2023-04-22T02:44:20.798Z,47.13
2023-04-22T02:46:48.293Z,48.40
2023-04-22T02:49:15.603Z,48.80
2023-04-22T02:51:43.035Z,47.85
2023-04-22T02:54:10.556Z,47.45
2023-04-22T02:56:37.954Z,46.90
2023-04-22T02:59:05.265Z,51.05
2023-04-22T03:01:32.611Z,46.78
2023-04-22T03:04:00.349Z,47.35
2023-04-22T03:06:28.055Z,48.28
2023-04-22T03:08:56.535Z,53.65
2023-04-22T03:11:23.833Z,49.70
2023-04-22T03:13:51.135Z,51.20
2023-04-22T03:16:18.757Z,52.15
2023-04-22T03:18:46.081Z,51.42
2023-04-22T03:21:13.369Z,47.42
2023-04-22T03:23:41.035Z,49.03
2023-04-22T03:26:08.503Z,50.80
2023-04-22T03:28:35.849Z,50.58
2023-04-22T03:31:03.142Z,50.45
2023-04-22T03:33:30.438Z,48.60
2023-04-22T03:35:57.818Z,51.72
2023-04-22T03:38:25.474Z,53.78
2023-04-22T03:40:52.773Z,48.75
2023-04-22T03:43:21.071Z,51.08
2023-04-22T03:45:48.478Z,50.55
2023-04-22T03:48:15.827Z,50.63
2023-04-22T03:50:43.122Z,44.33
2023-04-22T03:53:10.528Z,46.72
2023-04-22T03:55:37.857Z,44.53
2023-04-22T03:58:05.198Z,43.45
2023-04-22T04:00:32.789Z,42.92
2023-04-22T04:03:00.283Z,43.80
2023-04-22T04:05:27.717Z,43.63
2023-04-22T04:07:55.403Z,44.92
2023-04-22T04:10:22.713Z,42.92
2023-04-22T04:12:50.030Z,44.70
2023-04-22T04:15:19.200Z,46.25
2023-04-22T04:17:46.643Z,49.72
2023-04-22T04:20:15.398Z,46.67
2023-04-22T04:22:43.559Z,47.05
2023-04-22T04:25:11.855Z,44.83
2023-04-22T04:27:39.535Z,46.80
2023-04-22T04:30:07.671Z,47.47
2023-04-22T04:32:35.719Z,45.90
2023-04-22T04:35:03.292Z,46.85
2023-04-22T04:37:31.159Z,48.88
2023-04-22T04:40:01.793Z,50.30
2023-04-22T04:42:30.487Z,44.75
2023-04-22T04:44:58.565Z,47.83
2023-04-22T04:47:25.983Z,49.88
2023-04-22T04:49:53.867Z,46.35
2023-04-22T04:52:21.154Z,46.38
2023-04-22T04:54:48.396Z,49.28
2023-04-22T04:57:16.303Z,48.85
2023-04-22T04:59:43.546Z,49.17
2023-04-22T05:02:10.984Z,50.13
2023-04-22T05:04:38.577Z,52.75
2023-04-22T05:07:06.130Z,48.67
2023-04-22T05:09:37.408Z,47.25
2023-04-22T05:12:05.375Z,51.05
2023-04-22T05:14:32.714Z,50.17
2023-04-22T05:17:00.169Z,49.13
2023-04-22T05:19:27.699Z,49.45
2023-04-22T05:21:54.983Z,50.08
2023-04-22T05:24:22.262Z,54.15
2023-04-22T05:26:49.611Z,50.63
2023-04-22T05:29:17.109Z,49.45
2023-04-22T05:31:44.581Z,52.28
2023-04-22T05:34:12.500Z,48.42
2023-04-22T05:36:39.940Z,49.08
2023-04-22T05:39:07.347Z,51.42
2023-04-22T05:41:34.786Z,55.50
2023-04-22T05:44:02.096Z,52.78
2023-04-22T05:46:29.705Z,52.25
2023-04-22T05:48:57.177Z,52.95
2023-04-22T05:51:24.839Z,51.63
2023-04-22T05:53:52.132Z,54.80
2023-04-22T05:56:21.115Z,54.42
2023-04-22T05:58:48.415Z,57.70
2023-04-22T06:01:15.811Z,58.05
2023-04-22T06:03:43.605Z,56.22
2023-04-22T06:06:11.120Z,57.58
2023-04-22T06:08:38.424Z,56.45
2023-04-22T06:11:05.794Z,59.58
2023-04-22T06:13:33.089Z,61.70
2023-04-22T06:16:01.382Z,57.92
2023-04-22T06:18:28.990Z,54.92
2023-04-22T06:20:56.541Z,55.53
2023-04-22T06:23:23.934Z,56.33
2023-04-22T06:25:51.251Z,56.70
2023-04-22T06:28:18.672Z,56.65
2023-04-22T06:30:45.974Z,57.72
2023-04-22T06:33:13.302Z,61.22
2023-04-22T06:35:41.342Z,60.38
2023-04-22T06:38:08.864Z,58.00
2023-04-22T06:40:36.188Z,56.78
2023-04-22T06:43:04.072Z,51.58
2023-04-22T06:45:31.437Z,57.67
2023-04-22T06:47:58.814Z,56.88
2023-04-22T06:50:26.505Z,56.92
2023-04-22T06:52:54.391Z,55.40
2023-04-22T06:55:22.031Z,53.90
2023-04-22T06:57:51.264Z,54.40
2023-04-22T07:00:18.735Z,54.83
2023-04-22T07:02:46.158Z,55.53
2023-04-22T07:05:13.442Z,59.25
2023-04-22T07:07:40.929Z,54.83
2023-04-22T07:10:08.531Z,55.13
2023-04-22T07:12:35.836Z,55.55
2023-04-22T07:15:03.235Z,56.60
2023-04-22T07:17:30.563Z,59.42
2023-04-22T07:19:57.945Z,57.80
2023-04-22T07:22:25.448Z,54.80
2023-04-22T07:24:52.714Z,57.22
2023-04-22T07:27:19.985Z,59.10
2023-04-22T07:29:47.250Z,56.88
2023-04-22T07:32:14.560Z,56.70
2023-04-22T07:34:42.106Z,63.50
2023-04-22T07:37:09.649Z,58.15
2023-04-22T07:39:37.386Z,61.20
2023-04-22T07:42:05.043Z,59.63
2023-04-22T07:44:32.319Z,60.60
2023-04-22T07:47:00.066Z,58.78
2023-04-22T07:49:27.387Z,61.53
2023-04-22T07:51:54.693Z,61.33
2023-04-22T07:54:21.961Z,56.67
2023-04-22T07:56:50.312Z,57.25
2023-04-22T07:59:17.596Z,61.17
2023-04-22T08:01:46.625Z,60.88
2023-04-22T08:04:14.266Z,57.25
2023-04-22T08:06:41.955Z,57.80
2023-04-22T08:09:10.526Z,56.58
2023-04-22T08:11:37.882Z,52.55
2023-04-22T08:14:05.192Z,49.20
2023-04-22T08:16:32.633Z,38.70
2023-04-22T08:18:59.940Z,35.70
2023-04-22T08:21:28.435Z,30.33
2023-04-22T08:23:55.729Z,30.52
2023-04-22T08:26:23.208Z,35.67
2023-04-22T08:28:50.515Z,37.67
2023-04-22T08:31:17.865Z,33.65
2023-04-22T08:33:45.296Z,31.77
2023-04-22T08:36:13.689Z,27.70
2023-04-22T08:38:41.350Z,28.92
2023-04-22T08:41:09.884Z,26.10
2023-04-22T08:43:37.403Z,20.65
2023-04-22T08:46:05.705Z,21.08
2023-04-22T08:48:33.574Z,22.35
2023-04-22T08:51:01.116Z,22.15
2023-04-22T08:53:28.503Z,24.55
2023-04-22T08:55:56.593Z,25.10
2023-04-22T08:58:24.542Z,25.73
2023-04-22T09:00:52.775Z,27.33
2023-04-22T09:03:20.789Z,26.88
2023-04-22T09:05:53.247Z,25.50
2023-04-22T09:08:21.027Z,26.20
2023-04-22T09:10:48.741Z,23.20
2023-04-22T09:13:17.800Z,28.65
2023-04-22T09:15:45.827Z,25.50
2023-04-22T09:18:16.748Z,22.10
2023-04-22T09:20:44.078Z,25.20
2023-04-22T09:23:13.307Z,24.08
2023-04-22T09:25:41.333Z,24.23
2023-04-22T09:28:15.346Z,23.02
2023-04-22T09:30:46.098Z,21.60
2023-04-22T09:33:18.005Z,21.63
2023-04-22T09:35:45.443Z,22.40
2023-04-22T09:38:13.187Z,23.67
2023-04-22T09:40:44.525Z,21.95
2023-04-22T09:43:12.730Z,23.70
2023-04-22T09:45:42.514Z,23.17
2023-04-22T09:48:11.015Z,22.67
2023-04-22T09:50:40.477Z,20.70
2023-04-22T09:53:09.764Z,19.30
2023-04-22T09:55:41.457Z,21.13
2023-04-22T09:58:14.085Z,19.40
2023-04-22T10:00:49.060Z,19.35
2023-04-22T10:03:17.267Z,18.80
2023-04-22T10:05:46.137Z,19.08
2023-04-22T10:08:15.507Z,18.05
2023-04-22T10:10:44.071Z,18.85
2023-04-22T10:13:12.168Z,18.10
2023-04-22T10:15:54.834Z,20.67
2023-04-22T10:18:27.218Z,19.85
2023-04-22T10:20:57.228Z,19.17
2023-04-22T10:23:25.247Z,18.13
2023-04-22T10:25:57.109Z,18.27
2023-04-22T10:28:28.690Z,19.73
2023-04-22T10:30:56.169Z,18.52
2023-04-22T10:33:34.767Z,18.58
2023-04-22T10:36:20.609Z,18.15
2023-04-22T10:38:50.947Z,16.70
2023-04-22T10:41:26.647Z,17.55
2023-04-22T10:44:01.668Z,16.38
2023-04-22T10:46:49.335Z,15.70
2023-04-22T10:49:21.509Z,15.13
2023-04-22T10:51:50.118Z,15.32
2023-04-22T10:54:28.760Z,13.77
2023-04-22T10:57:19.150Z,13.75
2023-04-22T10:59:53.168Z,12.65
2023-04-22T11:02:22.773Z,13.52
2023-04-22T11:04:53.641Z,12.55
2023-04-22T11:07:22.918Z,13.05
2023-04-22T11:09:58.568Z,12.50
2023-04-22T11:12:43.791Z,13.43
2023-04-22T11:15:19.907Z,12.85
2023-04-22T11:17:52.398Z,12.00
2023-04-22T11:20:20.478Z,12.60
2023-04-22T11:22:58.433Z,12.85
2023-04-22T11:25:27.006Z,11.82
2023-04-22T11:27:57.009Z,12.23
2023-04-22T11:30:31.432Z,12.52
2023-04-22T11:33:00.868Z,15.07
2023-04-22T11:35:33.934Z,16.95
2023-04-22T11:38:04.361Z,19.55
2023-04-22T11:40:50.262Z,17.20
2023-04-22T11:43:18.898Z,16.80
2023-04-22T11:45:46.733Z,19.85
2023-04-22T11:48:15.671Z,17.90
2023-04-22T11:50:46.170Z,17.95
2023-04-22T11:53:21.852Z,18.95
2023-04-22T11:55:53.711Z,17.15
2023-04-22T11:58:27.230Z,16.58
2023-04-22T12:00:57.869Z,15.98
2023-04-22T12:03:27.478Z,15.70
2023-04-22T12:05:57.909Z,16.85
2023-04-22T12:08:37.242Z,16.15
2023-04-22T12:11:07.182Z,15.45
2023-04-22T12:13:42.902Z,14.50
2023-04-22T12:16:19.302Z,17.65
2023-04-22T12:18:54.301Z,17.05
2023-04-22T12:21:24.834Z,13.95
2023-04-22T12:24:01.054Z,13.40
2023-04-22T12:26:28.996Z,11.38
2023-04-22T12:28:59.279Z,10.50
2023-04-22T12:31:28.225Z,8.77
2023-04-22T12:33:56.630Z,8.30
2023-04-22T12:36:26.237Z,7.82
2023-04-22T12:38:53.526Z,7.72
2023-04-22T12:41:20.955Z,7.50
2023-04-22T12:43:48.434Z,7.43
2023-04-22T12:46:16.721Z,7.97
2023-04-22T12:48:44.076Z,9.27
2023-04-22T12:51:11.427Z,9.68
2023-04-22T12:53:38.739Z,7.85
2023-04-22T12:56:06.165Z,7.47
2023-04-22T12:58:33.464Z,9.48
2023-04-22T13:01:00.773Z,9.45
2023-04-22T13:03:28.563Z,9.15
2023-04-22T13:05:56.239Z,10.05
2023-04-22T13:08:23.525Z,9.80
2023-04-22T13:10:51.242Z,10.07
2023-04-22T13:13:19.500Z,9.85
2023-04-22T13:15:50.744Z,10.50
2023-04-22T13:18:18.184Z,9.07
2023-04-22T13:20:46.313Z,9.00
2023-04-22T13:23:14.424Z,10.07
2023-04-22T13:25:41.736Z,9.35
2023-04-22T13:28:09.160Z,8.90
2023-04-22T13:30:36.735Z,8.20
2023-04-22T13:33:04.111Z,8.65
2023-04-22T13:35:31.545Z,9.00
2023-04-22T13:37:59.029Z,8.52
2023-04-22T13:40:27.456Z,9.93
2023-04-22T13:43:01.979Z,8.63
2023-04-22T13:46:46.955Z,8.95
2023-04-22T14:37:51.328Z,10.10
2023-04-22T14:41:27.570Z,10.38
2023-04-22T14:44:39.316Z,11.68
2023-04-22T14:47:07.377Z,11.30
2023-04-22T14:49:34.679Z,9.27
2023-04-22T14:52:02.150Z,9.80
2023-04-22T14:54:29.476Z,12.82
2023-04-22T14:56:56.760Z,10.95
2023-04-22T14:59:24.412Z,12.82
2023-04-22T15:01:51.778Z,12.43
2023-04-22T15:04:19.581Z,11.60
2023-04-22T15:06:47.116Z,11.55
2023-04-22T15:09:14.949Z,12.05
2023-04-22T15:11:43.222Z,12.52
2023-04-22T15:14:12.033Z,12.15
2023-04-22T15:16:39.372Z,11.38
2023-04-22T15:19:06.865Z,12.77
2023-04-22T15:21:34.450Z,11.50
2023-04-22T15:24:02.012Z,13.30
2023-04-22T15:26:29.415Z,11.88
2023-04-22T15:28:56.739Z,13.65
2023-04-22T15:31:25.133Z,11.40
2023-04-22T15:33:52.844Z,12.18
2023-04-22T15:36:22.205Z,11.68
2023-04-22T15:38:56.558Z,12.07
2023-04-22T15:41:25.364Z,11.88
2023-04-22T15:43:53.209Z,12.70
2023-04-22T15:46:21.718Z,11.77
2023-04-22T15:48:49.253Z,10.98
2023-04-22T15:51:18.207Z,11.95
2023-04-22T15:53:46.253Z,12.10
2023-04-22T15:56:14.067Z,10.68
2023-04-22T15:58:41.678Z,10.95
2023-04-22T16:01:19.055Z,11.90
2023-04-22T16:03:50.481Z,11.18
2023-04-22T16:06:18.949Z,10.98
2023-04-22T16:08:46.712Z,10.45
2023-04-22T16:11:16.475Z,9.93
2023-04-22T16:13:44.153Z,8.73
2023-04-22T16:16:11.645Z,9.02
2023-04-22T16:18:39.978Z,9.18
2023-04-22T16:21:08.499Z,8.57
2023-04-22T16:23:36.952Z,7.50
2023-04-22T16:26:05.807Z,7.53
2023-04-22T16:28:33.222Z,8.20
2023-04-22T16:31:02.353Z,7.85
2023-04-22T16:33:29.738Z,7.93
2023-04-22T16:35:57.514Z,7.32
2023-04-22T16:38:24.832Z,6.47
2023-04-22T16:40:54.244Z,6.13
2023-04-22T16:43:21.957Z,6.28
2023-04-22T16:45:58.625Z,6.28
2023-04-22T16:48:26.028Z,5.40
2023-04-22T16:50:54.673Z,7.78
2023-04-22T16:53:21.994Z,7.18
2023-04-22T16:55:49.576Z,7.57
2023-04-22T16:58:16.940Z,6.75
2023-04-22T17:00:45.754Z,6.30
2023-04-22T17:03:15.118Z,7.18
2023-04-22T17:05:42.596Z,5.93
2023-04-22T17:08:09.988Z,5.90
2023-04-22T17:10:41.504Z,6.60
2023-04-22T17:13:09.107Z,6.30
2023-04-22T17:15:36.412Z,8.63
2023-04-22T17:18:05.890Z,7.85
2023-04-22T17:20:34.008Z,17.25
2023-04-22T17:23:01.829Z,9.73
2023-04-22T17:25:29.793Z,11.68
2023-04-22T17:27:57.570Z,8.68
2023-04-22T17:30:25.020Z,8.35
2023-04-22T17:32:52.366Z,6.82
2023-04-22T17:35:19.946Z,7.03
2023-04-22T17:37:47.269Z,7.40
2023-04-22T17:40:14.632Z,8.05
2023-04-22T17:42:46.284Z,7.43
2023-04-22T17:45:13.975Z,6.63
2023-04-22T17:47:41.572Z,8.48
2023-04-22T17:50:09.263Z,7.15
2023-04-22T17:52:37.042Z,6.65
2023-04-22T17:55:06.196Z,7.05
2023-04-22T17:57:34.985Z,6.55
2023-04-22T18:00:02.461Z,6.38
2023-04-22T18:02:30.502Z,7.50
2023-04-22T18:04:57.866Z,6.43
2023-04-22T18:07:25.230Z,6.53
2023-04-22T18:09:52.569Z,5.85
2023-04-22T18:12:24.052Z,12.15
2023-04-22T18:14:51.579Z,22.00
2023-04-22T18:17:21.693Z,14.95
2023-04-22T18:19:50.892Z,33.17
2023-04-22T18:22:18.982Z,15.52
2023-04-22T18:24:46.294Z,10.18
2023-04-22T18:27:13.662Z,7.80
2023-04-22T18:29:41.522Z,5.50
2023-04-22T18:32:09.956Z,5.07
2023-04-22T18:34:37.673Z,5.47
2023-04-22T18:37:05.102Z,6.78
2023-04-22T18:39:32.721Z,15.80
2023-04-22T18:41:59.991Z,15.60
2023-04-22T18:44:27.345Z,8.30
2023-04-22T18:46:54.959Z,12.07
2023-04-22T18:49:22.296Z,9.25
2023-04-22T18:51:49.755Z,7.47
2023-04-22T18:54:17.524Z,7.82
2023-04-22T18:56:46.139Z,6.20
2023-04-22T18:59:13.780Z,10.65
2023-04-22T19:01:41.239Z,13.85
2023-04-22T19:04:08.750Z,19.23
2023-04-22T19:06:36.447Z,15.82
2023-04-22T19:09:06.625Z,39.40
2023-04-22T19:11:38.560Z,24.10
2023-04-22T19:14:06.212Z,11.93
2023-04-22T19:16:33.737Z,42.00
2023-04-22T19:19:01.118Z,79.85
2023-04-22T19:21:30.000Z,105.43
2023-04-22T19:23:57.585Z,63.53
2023-04-22T19:26:26.550Z,28.27
2023-04-22T19:28:53.975Z,12.10
2023-04-22T19:31:21.642Z,8.05
2023-04-22T19:33:49.040Z,7.47
2023-04-22T19:36:16.743Z,7.35
2023-04-22T19:38:44.134Z,7.18
2023-04-22T19:41:11.773Z,7.32
2023-04-22T19:43:40.735Z,7.45
2023-04-22T19:46:08.176Z,8.07
2023-04-22T19:48:36.390Z,7.63
2023-04-22T19:51:05.300Z,7.38
2023-04-22T19:53:33.141Z,8.23
2023-04-22T19:56:00.904Z,8.80
2023-04-22T19:58:28.727Z,7.95
2023-04-22T20:00:56.821Z,8.60
2023-04-22T20:03:24.617Z,17.05
2023-04-22T20:05:53.168Z,25.88
2023-04-22T20:08:25.968Z,24.52
2023-04-22T20:10:54.899Z,15.52
2023-04-22T20:13:22.660Z,11.02
2023-04-22T20:15:50.307Z,11.00
2023-04-22T20:18:17.856Z,11.13
2023-04-22T20:20:48.306Z,9.90
2023-04-22T20:23:16.944Z,10.20
2023-04-22T20:25:45.043Z,10.07
2023-04-22T20:28:12.759Z,11.02
2023-04-22T20:30:40.915Z,13.38
2023-04-22T20:33:12.399Z,12.18
2023-04-22T20:35:41.429Z,14.43
2023-04-22T20:38:12.506Z,13.32
2023-04-22T20:40:41.206Z,13.35
2023-04-22T20:43:08.511Z,12.55
2023-04-22T20:45:38.503Z,14.60
2023-04-22T20:48:06.313Z,13.88
2023-04-22T20:50:34.008Z,13.27
2023-04-22T20:53:03.320Z,13.45
2023-04-22T20:55:31.796Z,14.00
2023-04-22T20:57:59.519Z,13.90
2023-04-22T21:00:27.105Z,14.07
2023-04-22T21:02:55.392Z,14.40
2023-04-22T21:05:23.021Z,14.18
2023-04-22T21:07:52.650Z,14.23
2023-04-22T21:10:21.382Z,13.35
2023-04-22T21:12:49.026Z,13.98
2023-04-22T21:15:16.792Z,14.45
2023-04-22T21:17:52.524Z,14.48
2023-04-22T21:20:24.519Z,14.45
2023-04-22T21:22:53.764Z,14.20
2023-04-22T21:25:22.408Z,15.02
2023-04-22T21:27:50.304Z,15.65
2023-04-22T21:30:18.172Z,15.70
2023-04-22T21:32:45.522Z,16.27
2023-04-22T21:35:12.821Z,16.10
2023-04-22T21:37:40.266Z,17.27
2023-04-22T21:40:13.049Z,16.77
2023-04-22T21:42:41.796Z,17.30
2023-04-22T21:45:09.567Z,19.50
2023-04-22T21:47:37.014Z,17.25
2023-04-22T21:50:05.159Z,17.17
2023-04-22T21:52:32.591Z,18.92
2023-04-22T21:55:00.188Z,18.77
2023-04-22T21:57:27.588Z,20.17
2023-04-22T21:59:54.941Z,19.52
2023-04-22T22:02:22.755Z,19.50
2023-04-22T22:04:50.350Z,19.75
2023-04-22T22:07:18.409Z,20.48
2023-04-22T22:09:46.725Z,20.33
2023-04-22T22:12:15.542Z,19.08
2023-04-22T22:14:43.671Z,18.65
2023-04-22T22:17:11.931Z,18.80
2023-04-22T22:19:39.449Z,20.08
2023-04-22T22:22:06.986Z,20.45
2023-04-22T22:24:36.883Z,20.83
2023-04-22T22:27:05.022Z,18.55
2023-04-22T22:29:32.608Z,19.63
2023-04-22T22:31:59.994Z,18.63
2023-04-22T22:34:29.386Z,19.65
2023-04-22T22:36:56.694Z,19.05
2023-04-22T22:39:24.174Z,18.15
2023-04-22T22:41:51.486Z,19.42
2023-04-22T22:44:19.024Z,19.13
2023-04-22T22:46:46.410Z,17.85
2023-04-22T22:49:13.958Z,20.08
2023-04-22T22:51:41.409Z,18.77
2023-04-22T22:54:08.762Z,19.90
2023-04-22T22:56:36.293Z,19.52
2023-04-22T22:59:03.677Z,19.10
2023-04-22T23:01:31.133Z,18.58
2023-04-22T23:03:58.938Z,18.52
2023-04-22T23:06:27.275Z,17.63
2023-04-22T23:08:54.583Z,16.50
2023-04-22T23:11:21.885Z,15.85
2023-04-22T23:13:49.197Z,17.05
2023-04-22T23:16:16.588Z,15.27
2023-04-22T23:18:44.940Z,15.13
2023-04-22T23:21:12.537Z,13.70
2023-04-22T23:23:40.960Z,13.52
2023-04-22T23:26:09.002Z,13.60
2023-04-22T23:28:36.634Z,12.93
2023-04-22T23:31:06.689Z,13.75
2023-04-22T23:33:40.299Z,11.68
2023-04-22T23:36:10.589Z,10.90
2023-04-22T23:38:37.919Z,11.80
2023-04-22T23:41:05.443Z,11.40
2023-04-22T23:43:32.737Z,11.95
2023-04-22T23:46:00.245Z,11.45
2023-04-22T23:48:27.642Z,10.73
2023-04-22T23:50:55.008Z,10.45
2023-04-22T23:53:22.401Z,9.82
2023-04-22T23:55:50.057Z,10.38
2023-04-22T23:58:17.600Z,10.98
